createdAt,value
2022-09-06T00:10:22.368Z,69.64
2022-09-06T00:25:22.954Z,68.42
2022-09-06T00:40:24.837Z,68.32
2022-09-06T00:55:25.416Z,69.26
2022-09-06T01:10:26.508Z,71.03
2022-09-06T01:25:27.421Z,72.52
2022-09-06T01:40:27.534Z,72.45
2022-09-06T01:55:28.688Z,71.64
2022-09-06T02:10:30.531Z,70.89
2022-09-06T02:25:31.945Z,72.62
2022-09-06T02:40:33.999Z,72.31
2022-09-06T02:55:34.281Z,72.75
2022-09-06T03:10:36.979Z,73.50
2022-09-06T03:25:37.573Z,74.85
2022-09-06T03:40:39.233Z,77.44
2022-09-06T03:55:40.207Z,78.73
2022-09-06T04:10:40.952Z,79.95
2022-09-06T04:25:42.289Z,81.72
2022-09-06T04:40:43.461Z,82.70
2022-09-06T04:55:44.593Z,82.03
2022-09-06T05:10:46.760Z,83.42
2022-09-06T05:25:48.111Z,81.26
2022-09-06T05:40:48.408Z,76.91
2022-09-06T05:55:48.504Z,74.10
2022-09-06T06:10:49.876Z,69.04
2022-09-06T06:25:50.953Z,66.47
2022-09-06T06:40:54.124Z,65.66
2022-09-06T06:55:57.193Z,65.06
2022-09-06T07:10:58.564Z,66.63
2022-09-06T07:25:58.963Z,66.13
2022-09-06T07:41:00.515Z,62.82
2022-09-06T07:56:01.883Z,61.02
2022-09-06T08:11:03.248Z,61.97
2022-09-06T08:26:03.358Z,61.08
2022-09-06T08:41:04.233Z,60.45
2022-09-06T08:56:04.975Z,60.32
2022-09-06T09:11:05.417Z,61.19
2022-09-06T09:26:06.447Z,60.72
2022-09-06T09:41:06.006Z,61.79
2022-09-06T09:56:06.581Z,60.45
2022-09-06T10:11:06.690Z,58.51
2022-09-06T10:26:07.750Z,58.47
2022-09-06T10:41:07.832Z,59.99
2022-09-06T10:56:08.429Z,58.21
2022-09-06T11:11:09.043Z,59.77
2022-09-06T11:26:09.612Z,59.79
2022-09-06T11:41:12.087Z,60.39
2022-09-06T11:56:12.837Z,59.49
2022-09-06T12:11:12.916Z,57.26
2022-09-06T12:26:12.978Z,57.09
2022-09-06T12:41:13.067Z,57.97
2022-09-06T12:56:13.675Z,57.51
2022-09-06T13:11:13.801Z,56.94
2022-09-06T13:26:13.895Z,57.68
2022-09-06T13:41:16.430Z,56.96
2022-09-06T13:56:20.553Z,57.28
2022-09-06T14:11:20.881Z,57.63
2022-09-06T14:26:21.325Z,55.80
2022-09-06T14:41:22.658Z,56.55
2022-09-06T14:56:23.225Z,54.71
2022-09-06T15:11:23.123Z,56.59
2022-09-06T15:26:23.718Z,58.27
2022-09-06T15:41:25.571Z,60.62
2022-09-06T15:56:27.436Z,60.08
2022-09-06T16:11:27.528Z,61.33
2022-09-06T16:26:27.631Z,61.76
2022-09-06T16:41:28.235Z,62.99
2022-09-06T16:56:29.295Z,62.55
2022-09-06T17:11:28.965Z,62.78
2022-09-06T17:26:29.052Z,64.42
2022-09-06T17:41:29.142Z,63.87
2022-09-06T17:56:29.235Z,64.18
2022-09-06T18:11:29.344Z,65.77
2022-09-06T18:26:29.444Z,65.27
2022-09-06T18:41:29.519Z,66.17
2022-09-06T18:56:29.642Z,67.35
2022-09-06T19:11:29.729Z,66.34
2022-09-06T19:26:31.892Z,65.87
2022-09-06T19:41:34.497Z,65.97
2022-09-06T19:56:34.594Z,67.27
2022-09-06T20:11:35.931Z,67.00
2022-09-06T20:26:36.640Z,67.14
2022-09-06T20:41:38.962Z,67.84
2022-09-06T20:56:40.809Z,68.68
2022-09-06T21:11:41.427Z,68.41
2022-09-06T21:26:42.375Z,67.50
2022-09-06T21:41:44.719Z,68.41
2022-09-06T21:56:45.398Z,68.61
2022-09-06T22:11:48.499Z,68.31
2022-09-06T22:26:49.692Z,68.65
2022-09-06T22:41:51.492Z,68.57
2022-09-06T22:56:53.378Z,69.01
2022-09-06T23:11:54.762Z,70.46
2022-09-06T23:26:56.131Z,69.92
2022-09-06T23:41:57.666Z,72.31
2022-09-06T23:56:58.291Z,73.93
